createdAt,value
2022-10-28T00:00:27.107Z,15.70
2022-10-28T00:02:55.535Z,15.70
2022-10-28T00:05:23.877Z,15.70
2022-10-28T00:07:53.377Z,15.70
2022-10-28T00:10:21.576Z,15.60
2022-10-28T00:12:49.422Z,15.60
2022-10-28T00:15:17.401Z,15.60
2022-10-28T00:17:45.283Z,15.60
2022-10-28T00:20:13.183Z,15.60
2022-10-28T00:22:41.084Z,15.50
2022-10-28T00:25:11.170Z,15.50
2022-10-28T00:27:39.227Z,15.50
2022-10-28T00:30:07.773Z,15.50
2022-10-28T00:32:35.747Z,15.50
2022-10-28T00:35:03.711Z,15.50
2022-10-28T00:37:31.735Z,15.50
2022-10-28T00:39:59.611Z,15.50
2022-10-28T00:42:28.848Z,15.50
2022-10-28T00:44:57.950Z,15.50
2022-10-28T00:47:29.811Z,15.50
2022-10-28T00:49:58.899Z,15.50
2022-10-28T00:52:28.184Z,15.50
2022-10-28T00:54:57.190Z,15.50
2022-10-28T00:57:26.076Z,15.50
2022-10-28T00:59:55.375Z,15.50
2022-10-28T01:02:23.556Z,15.50
2022-10-28T01:04:51.626Z,15.50
2022-10-28T01:07:19.789Z,15.50
2022-10-28T01:09:47.846Z,15.50
2022-10-28T01:12:18.993Z,15.50
2022-10-28T01:14:53.626Z,15.50
2022-10-28T01:17:41.264Z,15.40
2022-10-28T01:20:26.877Z,15.40
2022-10-28T01:22:59.340Z,15.40
2022-10-28T01:25:53.835Z,15.30
2022-10-28T01:28:31.105Z,15.30
2022-10-28T01:31:07.108Z,15.30
2022-10-28T01:33:37.415Z,15.20
2022-10-28T01:36:12.117Z,15.20
2022-10-28T01:41:14.659Z,15.20
2022-10-28T01:43:47.008Z,15.10
2022-10-28T01:46:17.147Z,15.00
2022-10-28T01:48:46.429Z,15.00
2022-10-28T01:51:17.963Z,15.00
2022-10-28T01:53:48.354Z,14.90
2022-10-28T01:56:19.007Z,14.90
2022-10-28T01:58:47.280Z,14.80
2022-10-28T02:01:15.288Z,14.80
2022-10-28T02:03:43.413Z,14.80
2022-10-28T02:06:16.681Z,14.80
2022-10-28T02:08:53.783Z,14.80
2022-10-28T02:11:45.545Z,14.80
2022-10-28T02:14:21.476Z,14.80
2022-10-28T02:16:50.756Z,14.80
2022-10-28T02:19:25.292Z,14.80
2022-10-28T02:22:01.682Z,14.80
2022-10-28T02:24:33.658Z,14.80
2022-10-28T02:27:04.176Z,14.80
2022-10-28T02:29:36.946Z,14.80
2022-10-28T02:32:06.991Z,14.80
2022-10-28T02:34:36.405Z,14.80
2022-10-28T02:37:06.734Z,14.80
2022-10-28T02:39:36.468Z,14.80
2022-10-28T02:42:06.792Z,14.80
2022-10-28T02:44:37.974Z,14.80
2022-10-28T02:47:09.018Z,14.80
2022-10-28T02:49:38.529Z,14.80
2022-10-28T02:52:07.496Z,14.80
2022-10-28T02:54:38.181Z,14.80
2022-10-28T02:57:08.547Z,14.80
2022-10-28T02:59:37.815Z,14.80
2022-10-28T03:02:05.767Z,14.80
2022-10-28T03:04:33.802Z,14.80
2022-10-28T03:07:01.686Z,14.80
2022-10-28T03:09:29.566Z,14.70
2022-10-28T03:11:57.492Z,14.80
2022-10-28T03:14:25.466Z,14.70
2022-10-28T03:16:54.667Z,14.80
2022-10-28T03:19:22.625Z,14.80
2022-10-28T03:21:50.508Z,14.70
2022-10-28T03:24:18.440Z,14.70
2022-10-28T03:26:46.359Z,14.70
2022-10-28T03:29:14.178Z,14.70
2022-10-28T03:31:42.091Z,14.70
2022-10-28T03:34:11.337Z,14.70
2022-10-28T03:36:39.376Z,14.60
2022-10-28T03:39:07.509Z,14.60
2022-10-28T03:41:35.552Z,14.60
2022-10-28T03:44:03.445Z,14.60
2022-10-28T03:46:35.086Z,14.60
2022-10-28T03:49:04.135Z,14.60
2022-10-28T03:51:33.394Z,14.60
2022-10-28T03:54:01.392Z,14.60
2022-10-28T03:56:29.365Z,14.50
2022-10-28T03:58:57.236Z,14.50
2022-10-28T04:01:25.257Z,14.40
2022-10-28T04:03:53.177Z,14.40
2022-10-28T04:06:21.105Z,14.30
2022-10-28T04:08:50.347Z,14.40
2022-10-28T04:11:18.273Z,14.30
2022-10-28T04:13:46.181Z,14.30
2022-10-28T04:16:14.060Z,14.30
2022-10-28T04:18:42.045Z,14.20
2022-10-28T04:21:09.927Z,14.20
2022-10-28T04:23:37.814Z,14.20
2022-10-28T04:26:07.230Z,14.20
2022-10-28T04:28:35.162Z,14.20
2022-10-28T04:31:03.450Z,14.10
2022-10-28T04:33:31.472Z,14.10
2022-10-28T04:35:59.339Z,14.10
2022-10-28T04:38:27.496Z,14.10
2022-10-28T04:40:55.420Z,14.10
2022-10-28T04:43:24.659Z,14.10
2022-10-28T04:45:52.602Z,14.10
2022-10-28T04:48:20.492Z,14.10
2022-10-28T04:50:48.349Z,14.10
2022-10-28T04:53:16.212Z,14.00
2022-10-28T04:55:44.097Z,14.00
2022-10-28T04:58:11.981Z,14.00
2022-10-28T05:00:41.289Z,14.00
2022-10-28T05:03:09.278Z,14.00
2022-10-28T05:05:37.202Z,14.00
2022-10-28T05:08:05.516Z,14.00
2022-10-28T05:10:33.605Z,14.00
2022-10-28T05:13:01.484Z,14.00
2022-10-28T05:15:31.283Z,14.00
2022-10-28T05:18:00.714Z,14.00
2022-10-28T05:20:28.575Z,13.90
2022-10-28T05:22:57.196Z,14.00
2022-10-28T05:25:25.402Z,14.00
2022-10-28T05:27:53.752Z,14.00
2022-10-28T05:30:21.625Z,14.00
2022-10-28T05:32:51.651Z,14.00
2022-10-28T05:35:23.804Z,14.00
2022-10-28T05:37:51.750Z,14.00
2022-10-28T05:40:19.612Z,14.00
2022-10-28T05:42:47.528Z,14.00
2022-10-28T05:45:15.472Z,14.00
2022-10-28T05:47:44.086Z,14.00
2022-10-28T05:50:12.141Z,14.00
2022-10-28T05:52:41.658Z,14.00
2022-10-28T05:55:09.920Z,14.00
2022-10-28T05:57:37.883Z,14.00
2022-10-28T06:00:06.400Z,14.00
2022-10-28T06:02:34.342Z,14.00
2022-10-28T06:05:02.235Z,14.00
2022-10-28T06:07:30.366Z,14.00
2022-10-28T06:09:59.698Z,14.00
2022-10-28T06:12:26.094Z,14.00
2022-10-28T06:14:54.168Z,14.00
2022-10-28T06:17:22.115Z,14.00
2022-10-28T06:19:49.959Z,14.00
2022-10-28T06:22:18.097Z,14.00
2022-10-28T06:24:46.342Z,14.00
2022-10-28T06:27:15.730Z,14.00
2022-10-28T06:29:43.712Z,14.00
2022-10-28T06:32:11.565Z,14.10
2022-10-28T06:34:39.471Z,14.00
2022-10-28T06:37:09.007Z,14.10
2022-10-28T06:39:38.466Z,14.00
2022-10-28T06:42:06.438Z,14.80
2022-10-28T06:44:35.695Z,14.00
2022-10-28T06:47:05.145Z,14.00
2022-10-28T06:49:33.026Z,14.00
2022-10-28T06:52:00.902Z,14.10
2022-10-28T06:54:28.849Z,14.00
2022-10-28T06:56:56.764Z,14.00
2022-10-28T06:59:24.721Z,14.10
2022-10-28T07:01:54.025Z,14.10
2022-10-28T07:04:22.003Z,14.10
2022-10-28T07:06:52.022Z,14.10
2022-10-28T07:09:20.063Z,14.10
2022-10-28T07:11:53.603Z,14.10
2022-10-28T07:14:23.124Z,14.10
2022-10-28T07:16:51.042Z,14.10
2022-10-28T07:19:22.611Z,14.10
2022-10-28T07:21:50.728Z,14.20
2022-10-28T07:24:18.661Z,14.20
2022-10-28T07:26:48.689Z,14.20
2022-10-28T07:29:17.012Z,14.20
2022-10-28T07:31:44.970Z,14.20
2022-10-28T07:34:12.914Z,14.30
2022-10-28T07:36:42.375Z,14.30
2022-10-28T07:39:10.830Z,14.30
2022-10-28T07:41:38.798Z,14.30
2022-10-28T07:44:06.880Z,14.40
2022-10-28T07:46:34.793Z,14.40
2022-10-28T07:49:02.664Z,14.40
2022-10-28T07:51:30.810Z,14.40
2022-10-28T07:54:00.440Z,14.50
2022-10-28T07:56:28.372Z,14.50
2022-10-28T07:58:56.269Z,14.50
2022-10-28T08:01:24.333Z,14.60
2022-10-28T08:03:52.358Z,14.60
2022-10-28T08:06:21.704Z,14.70
2022-10-28T08:08:53.634Z,14.70
2022-10-28T08:11:23.841Z,14.80
2022-10-28T08:13:52.059Z,14.80
2022-10-28T08:16:20.397Z,14.90
2022-10-28T08:18:48.354Z,14.90
2022-10-28T08:21:16.570Z,15.00
2022-10-28T08:23:46.541Z,15.00
2022-10-28T08:26:14.961Z,15.10
2022-10-28T08:28:44.272Z,15.10
2022-10-28T08:31:13.118Z,15.20
2022-10-28T08:33:42.230Z,15.30
2022-10-28T08:36:11.588Z,15.30
2022-10-28T08:38:44.919Z,15.40
2022-10-28T08:41:31.276Z,15.50
2022-10-28T08:44:09.417Z,15.50
2022-10-28T08:46:47.946Z,15.60
2022-10-28T08:49:17.328Z,15.70
2022-10-28T08:51:46.953Z,15.80
2022-10-28T08:54:16.820Z,15.90
2022-10-28T08:56:46.266Z,16.00
2022-10-28T08:59:18.641Z,16.10
2022-10-28T09:01:48.554Z,16.20
2022-10-28T09:04:21.235Z,16.30
2022-10-28T09:06:49.223Z,16.40
2022-10-28T09:09:19.761Z,16.50
2022-10-28T09:11:54.032Z,16.70
2022-10-28T09:14:29.406Z,16.30
2022-10-28T09:17:02.912Z,16.90
2022-10-28T09:19:36.933Z,17.00
2022-10-28T09:22:10.194Z,17.00
2022-10-28T09:24:42.591Z,17.20
2022-10-28T09:27:17.117Z,17.30
2022-10-28T09:29:51.578Z,17.40
2022-10-28T09:32:23.561Z,17.50
2022-10-28T09:34:55.519Z,17.60
2022-10-28T09:37:25.246Z,17.70
2022-10-28T09:39:55.755Z,18.00
2022-10-28T09:42:27.222Z,17.90
2022-10-28T09:44:58.846Z,18.00
2022-10-28T09:47:30.330Z,18.10
2022-10-28T09:50:00.236Z,18.20
2022-10-28T09:52:30.974Z,18.30
2022-10-28T09:55:00.369Z,18.40
2022-10-28T09:57:31.040Z,18.50
2022-10-28T10:00:00.969Z,18.60
2022-10-28T10:02:30.400Z,18.70
2022-10-28T10:04:59.185Z,18.80
2022-10-28T10:07:32.434Z,18.90
2022-10-28T10:12:35.145Z,19.00
2022-10-28T10:15:06.286Z,19.10
2022-10-28T10:17:38.282Z,19.20
2022-10-28T10:20:07.352Z,19.30
2022-10-28T10:22:36.967Z,19.30
2022-10-28T10:25:05.288Z,19.30
2022-10-28T10:27:33.194Z,19.40
2022-10-28T10:30:01.228Z,19.50
2022-10-28T10:32:31.986Z,19.50
2022-10-28T10:35:02.754Z,19.50
2022-10-28T10:37:34.663Z,19.50
2022-10-28T10:40:04.873Z,19.60
2022-10-28T10:42:39.130Z,19.60
2022-10-28T10:45:22.879Z,19.60
2022-10-28T10:48:06.033Z,19.70
2022-10-28T10:50:34.090Z,19.70
2022-10-28T10:53:02.426Z,19.80
2022-10-28T10:55:34.790Z,19.80
2022-10-28T10:58:03.478Z,19.00
2022-10-28T11:00:33.832Z,20.00
2022-10-28T11:03:03.368Z,20.00
2022-10-28T11:05:37.782Z,20.00
2022-10-28T11:08:07.661Z,20.10
2022-10-28T11:10:36.207Z,20.20
2022-10-28T11:13:06.383Z,20.30
2022-10-28T11:15:34.509Z,20.30
2022-10-28T11:18:04.986Z,20.40
2022-10-28T11:20:43.919Z,20.40
2022-10-28T11:23:17.212Z,20.50
2022-10-28T11:25:46.681Z,20.60
2022-10-28T11:28:22.500Z,20.70
2022-10-28T11:30:55.843Z,20.70
2022-10-28T11:33:30.646Z,20.80
2022-10-28T11:36:03.999Z,20.90
2022-10-28T11:38:43.254Z,20.90
2022-10-28T11:41:29.532Z,21.00
2022-10-28T11:44:04.682Z,21.10
2022-10-28T11:46:39.468Z,21.10
2022-10-28T11:49:22.373Z,21.30
2022-10-28T11:51:51.564Z,21.30
2022-10-28T11:54:25.868Z,21.40
2022-10-28T11:56:57.781Z,21.40
2022-10-28T11:59:33.999Z,21.50
2022-10-28T12:02:06.267Z,21.50
2022-10-28T12:04:43.465Z,21.50
2022-10-28T12:07:19.911Z,19.30
2022-10-28T12:09:54.881Z,21.50
2022-10-28T12:12:26.886Z,21.50
2022-10-28T12:14:57.791Z,21.50
2022-10-28T12:17:29.185Z,21.50
2022-10-28T12:20:00.326Z,21.50
2022-10-28T12:22:30.459Z,21.40
2022-10-28T12:24:59.552Z,21.40
2022-10-28T12:27:29.417Z,21.40
2022-10-28T12:29:59.827Z,21.40
2022-10-28T12:32:29.502Z,21.40
2022-10-28T12:35:01.605Z,21.40
2022-10-28T12:37:32.349Z,20.00
2022-10-28T12:40:03.219Z,21.40
2022-10-28T12:42:33.113Z,21.40
2022-10-28T12:45:04.418Z,21.50
2022-10-28T12:47:40.516Z,21.50
2022-10-28T12:50:14.603Z,21.60
2022-10-28T12:52:45.810Z,21.60
2022-10-28T12:55:24.771Z,21.60
2022-10-28T12:57:54.352Z,21.60
2022-10-28T13:00:24.914Z,21.60
2022-10-28T13:02:55.555Z,21.60
2022-10-28T13:05:27.058Z,21.60
2022-10-28T13:08:12.902Z,21.70
2022-10-28T13:10:43.905Z,21.70
2022-10-28T13:13:19.466Z,21.70
2022-10-28T13:16:04.020Z,21.70
2022-10-28T13:18:42.131Z,21.70
2022-10-28T13:21:15.710Z,21.70
2022-10-28T13:23:47.413Z,21.70
2022-10-28T13:26:18.355Z,21.70
2022-10-28T13:28:48.612Z,21.80
2022-10-28T13:31:16.649Z,21.80
2022-10-28T13:33:49.094Z,21.80
2022-10-28T13:36:19.963Z,21.90
2022-10-28T13:38:55.131Z,21.90
2022-10-28T13:41:36.947Z,21.90
2022-10-28T13:44:22.561Z,22.00
2022-10-28T13:47:09.238Z,22.00
2022-10-28T13:49:38.285Z,22.00
2022-10-28T13:52:19.551Z,22.00
2022-10-28T13:54:54.960Z,21.90
2022-10-28T13:57:26.173Z,21.90
2022-10-28T13:59:56.903Z,21.90
2022-10-28T14:02:35.032Z,21.80
2022-10-28T14:05:05.475Z,21.80
2022-10-28T14:07:35.725Z,21.80
2022-10-28T14:10:19.980Z,21.80
2022-10-28T14:12:49.220Z,21.70
2022-10-28T14:15:22.050Z,21.70
2022-10-28T14:17:52.005Z,21.70
2022-10-28T14:20:35.210Z,21.70
2022-10-28T14:23:17.987Z,21.60
2022-10-28T14:26:05.428Z,21.60
2022-10-28T14:28:52.889Z,21.60
2022-10-28T14:31:33.733Z,21.50
2022-10-28T14:34:20.327Z,21.50
2022-10-28T14:36:54.462Z,21.50
2022-10-28T14:39:29.074Z,21.50
2022-10-28T14:42:06.160Z,21.40
2022-10-28T14:44:40.367Z,21.40
2022-10-28T14:47:16.724Z,21.40
2022-10-28T14:49:49.201Z,21.40
2022-10-28T14:52:18.718Z,21.40
2022-10-28T14:54:49.126Z,21.40
2022-10-28T14:57:22.286Z,21.30
2022-10-28T14:59:51.342Z,20.70
2022-10-28T15:02:21.942Z,21.30
2022-10-28T15:04:58.627Z,21.30
2022-10-28T15:07:26.608Z,21.30
2022-10-28T15:09:55.459Z,21.20
2022-10-28T15:12:26.669Z,21.20
2022-10-28T15:14:55.914Z,21.10
2022-10-28T15:17:24.693Z,21.10
2022-10-28T15:19:53.637Z,21.10
2022-10-28T15:22:22.891Z,21.10
2022-10-28T15:24:57.553Z,21.00
2022-10-28T15:27:28.149Z,21.00
2022-10-28T15:29:56.669Z,21.00
2022-10-28T15:32:31.985Z,20.90
2022-10-28T15:35:00.157Z,20.90
2022-10-28T15:37:29.468Z,20.80
2022-10-28T15:40:12.504Z,20.80
2022-10-28T15:42:43.496Z,20.80
2022-10-28T15:45:18.873Z,20.70
2022-10-28T15:47:47.649Z,20.70
2022-10-28T15:50:26.935Z,20.70
2022-10-28T15:52:57.171Z,20.70
2022-10-28T15:55:35.811Z,20.60
2022-10-28T15:58:35.579Z,20.60
2022-10-28T16:01:03.737Z,20.60
2022-10-28T16:03:42.350Z,20.50
2022-10-28T16:06:20.834Z,20.50
2022-10-28T16:08:48.912Z,20.50
2022-10-28T16:11:18.312Z,20.50
2022-10-28T16:16:17.347Z,20.40
2022-10-28T16:18:47.245Z,20.40
2022-10-28T16:21:17.822Z,20.40
2022-10-28T16:23:47.743Z,20.40
2022-10-28T16:26:15.858Z,20.30
2022-10-28T16:28:45.317Z,20.30
2022-10-28T16:31:15.590Z,20.30
2022-10-28T16:33:45.216Z,20.30
2022-10-28T16:36:14.270Z,20.30
2022-10-28T16:38:42.154Z,20.20
2022-10-28T16:41:14.553Z,20.20
2022-10-28T16:43:43.017Z,20.20
2022-10-28T16:46:12.219Z,20.20
2022-10-28T16:48:40.400Z,20.10
2022-10-28T16:51:13.918Z,20.10
2022-10-28T16:53:46.851Z,20.10
2022-10-28T16:56:16.482Z,20.10
2022-10-28T16:58:44.790Z,20.00
2022-10-28T17:01:13.096Z,20.00
2022-10-28T17:03:41.027Z,20.00
2022-10-28T17:06:10.387Z,20.00
2022-10-28T17:09:01.771Z,20.00
2022-10-28T17:13:59.551Z,20.00
2022-10-28T17:16:27.442Z,19.90
2022-10-28T17:18:55.380Z,19.90
2022-10-28T17:21:23.317Z,19.90
2022-10-28T17:23:52.842Z,19.90
2022-10-28T17:26:20.724Z,19.80
2022-10-28T17:28:51.480Z,19.80
2022-10-28T17:31:23.877Z,19.80
2022-10-28T17:33:56.469Z,19.70
2022-10-28T17:36:24.443Z,19.70
2022-10-28T17:38:53.683Z,19.70
2022-10-28T17:41:21.734Z,19.70
2022-10-28T17:43:52.943Z,19.60
2022-10-28T17:46:20.988Z,19.60
2022-10-28T17:48:49.209Z,19.60
2022-10-28T17:51:17.538Z,19.60
2022-10-28T17:53:45.535Z,19.60
2022-10-28T17:56:14.980Z,19.50
2022-10-28T17:58:42.934Z,19.50
2022-10-28T18:01:11.527Z,19.50
2022-10-28T18:03:39.672Z,19.40
2022-10-28T18:06:08.430Z,19.40
2022-10-28T18:08:37.360Z,19.40
2022-10-28T18:11:05.850Z,19.40
2022-10-28T18:13:36.554Z,19.30
2022-10-28T18:16:05.215Z,19.30
2022-10-28T18:18:37.466Z,19.20
2022-10-28T18:21:09.783Z,19.20
2022-10-28T18:23:37.876Z,19.10
2022-10-28T18:26:06.697Z,19.10
2022-10-28T18:28:36.514Z,19.10
2022-10-28T18:31:05.402Z,19.10
2022-10-28T18:33:33.927Z,19.10
2022-10-28T18:36:02.063Z,19.00
2022-10-28T18:38:30.741Z,19.00
2022-10-28T18:40:58.998Z,19.00
2022-10-28T18:43:27.081Z,18.90
2022-10-28T18:46:00.980Z,18.90
2022-10-28T18:48:29.120Z,18.90
2022-10-28T18:50:57.516Z,18.80
2022-10-28T18:53:25.623Z,18.80
2022-10-28T18:55:53.689Z,18.80
2022-10-28T18:58:21.596Z,18.80
2022-10-28T19:00:49.542Z,18.70
2022-10-28T19:03:20.831Z,18.70
2022-10-28T19:05:48.842Z,18.70
2022-10-28T19:08:16.868Z,18.70
2022-10-28T19:10:44.782Z,18.70
2022-10-28T19:13:12.808Z,18.60
2022-10-28T19:15:46.823Z,18.60
2022-10-28T19:18:16.914Z,18.60
2022-10-28T19:20:48.542Z,18.50
2022-10-28T19:23:16.519Z,18.50
2022-10-28T19:25:44.734Z,18.50
2022-10-28T19:28:12.908Z,18.40
2022-10-28T19:30:40.900Z,18.40
2022-10-28T19:33:08.753Z,18.40
2022-10-28T19:35:36.663Z,18.40
2022-10-28T19:38:05.972Z,18.30
2022-10-28T19:40:33.992Z,18.30
2022-10-28T19:43:01.973Z,18.30
2022-10-28T19:45:30.020Z,18.30
2022-10-28T19:48:01.126Z,19.60
2022-10-28T19:50:29.183Z,18.30
2022-10-28T19:52:57.165Z,18.30
2022-10-28T19:55:26.435Z,18.20
2022-10-28T19:57:54.671Z,18.20
2022-10-28T20:00:23.018Z,18.20
2022-10-28T20:02:51.007Z,18.20
2022-10-28T20:05:19.096Z,18.20
2022-10-28T20:07:46.968Z,18.10
2022-10-28T20:10:14.982Z,18.10
2022-10-28T20:12:44.292Z,18.10
2022-10-28T20:15:12.332Z,18.10
2022-10-28T20:17:40.283Z,18.10
2022-10-28T20:20:09.646Z,18.10
2022-10-28T20:22:42.159Z,18.10
2022-10-28T20:25:10.959Z,18.00
2022-10-28T20:27:38.977Z,18.00
2022-10-28T20:30:10.028Z,18.00
2022-10-28T20:32:38.012Z,18.00
2022-10-28T20:35:06.541Z,18.00
2022-10-28T20:37:34.663Z,18.20
2022-10-28T20:40:06.351Z,17.90
2022-10-28T20:42:35.564Z,17.90
2022-10-28T20:45:03.516Z,17.90
2022-10-28T20:47:32.785Z,17.80
2022-10-28T20:50:00.802Z,17.80
2022-10-28T20:52:28.749Z,17.80
2022-10-28T20:54:56.738Z,17.80
2022-10-28T20:57:24.936Z,17.80
2022-10-28T20:59:52.852Z,17.80
2022-10-28T21:02:20.925Z,17.80
2022-10-28T21:04:50.450Z,17.70
2022-10-28T21:07:18.380Z,17.70
2022-10-28T21:09:46.379Z,17.60
2022-10-28T21:12:14.340Z,17.60
2022-10-28T21:14:42.256Z,17.60
2022-10-28T21:17:10.314Z,17.60
2022-10-28T21:19:38.340Z,17.50
2022-10-28T21:22:07.588Z,17.50
2022-10-28T21:24:35.478Z,17.50
2022-10-28T21:27:03.436Z,17.50
2022-10-28T21:29:31.459Z,17.40
2022-10-28T21:31:59.510Z,17.40
2022-10-28T21:34:27.436Z,17.40
2022-10-28T21:36:55.372Z,17.40
2022-10-28T21:39:24.643Z,17.30
2022-10-28T21:41:52.555Z,17.30
2022-10-28T21:44:20.514Z,17.30
2022-10-28T21:46:48.482Z,17.20
2022-10-28T21:49:16.608Z,17.20
2022-10-28T21:51:44.578Z,17.30
2022-10-28T21:54:12.483Z,17.20
2022-10-28T21:56:41.814Z,17.20
2022-10-28T21:59:09.795Z,17.20
2022-10-28T22:01:37.755Z,17.20
2022-10-28T22:04:06.029Z,17.10
2022-10-28T22:06:34.138Z,17.10
2022-10-28T22:09:03.391Z,17.00
2022-10-28T22:11:31.283Z,17.10
2022-10-28T22:14:01.331Z,17.10
2022-10-28T22:16:30.073Z,17.10
2022-10-28T22:18:58.926Z,17.00
2022-10-28T22:21:27.851Z,17.00
2022-10-28T22:23:55.831Z,17.00
2022-10-28T22:26:24.840Z,17.00
2022-10-28T22:28:53.197Z,16.90
2022-10-28T22:31:23.646Z,16.90
2022-10-28T22:33:51.826Z,16.90
2022-10-28T22:36:20.587Z,16.90
2022-10-28T22:38:48.857Z,16.90
2022-10-28T22:41:17.519Z,16.90
2022-10-28T22:43:46.021Z,16.90
2022-10-28T22:46:15.020Z,16.80
2022-10-28T22:48:44.631Z,16.80
2022-10-28T22:51:12.810Z,16.80
2022-10-28T22:53:41.104Z,16.80
2022-10-28T22:56:09.958Z,16.80
2022-10-28T22:58:37.976Z,16.80
2022-10-28T23:01:06.763Z,16.80
2022-10-28T23:03:38.591Z,16.80
2022-10-28T23:06:08.642Z,16.80
2022-10-28T23:08:36.675Z,16.80
2022-10-28T23:11:04.717Z,16.70
2022-10-28T23:13:32.826Z,16.70
2022-10-28T23:16:03.571Z,16.70
2022-10-28T23:18:31.512Z,16.70
2022-10-28T23:21:04.321Z,16.70
2022-10-28T23:23:33.581Z,16.70
2022-10-28T23:26:01.519Z,16.70
2022-10-28T23:28:29.458Z,16.70
2022-10-28T23:31:00.281Z,16.60
2022-10-28T23:33:28.739Z,16.60
2022-10-28T23:35:56.746Z,16.60
2022-10-28T23:38:24.795Z,16.60
2022-10-28T23:40:58.191Z,16.50
2022-10-28T23:43:26.313Z,16.50
2022-10-28T23:45:54.452Z,16.50
2022-10-28T23:48:22.414Z,16.40
2022-10-28T23:50:50.521Z,16.40
2022-10-28T23:53:18.493Z,16.40
2022-10-28T23:55:47.152Z,16.30
2022-10-28T23:58:16.945Z,16.30
